createdAt,value
2022-10-22T00:00:55.877Z,82.25
2022-10-22T00:04:57.510Z,82.32
2022-10-22T00:08:59.162Z,81.93
2022-10-22T00:13:00.719Z,81.70
2022-10-22T00:17:02.445Z,81.75
2022-10-22T00:21:05.414Z,80.85
2022-10-22T00:25:07.503Z,81.55
2022-10-22T00:29:09.274Z,81.51
2022-10-22T00:33:10.852Z,81.45
2022-10-22T00:37:12.608Z,81.27
2022-10-22T00:41:14.689Z,81.91
2022-10-22T00:45:27.383Z,81.99
2022-10-22T00:49:29.134Z,82.54
2022-10-22T00:53:39.977Z,82.25
2022-10-22T00:57:42.583Z,82.27
2022-10-22T01:01:45.144Z,82.57
2022-10-22T01:05:58.283Z,82.87
2022-10-22T01:10:29.309Z,82.71
2022-10-22T01:15:06.304Z,82.37
2022-10-22T01:19:32.124Z,82.45
2022-10-22T01:23:45.778Z,81.90
2022-10-22T01:28:14.469Z,82.05
2022-10-22T01:32:23.149Z,81.79
2022-10-22T01:36:25.906Z,81.01
2022-10-22T01:40:28.984Z,81.64
2022-10-22T01:44:33.155Z,81.16
2022-10-22T01:48:58.014Z,81.70
2022-10-22T01:52:59.565Z,81.58
2022-10-22T01:57:12.717Z,81.48
2022-10-22T02:01:23.108Z,81.25
2022-10-22T02:05:36.298Z,81.23
2022-10-22T02:09:40.942Z,81.17
2022-10-22T02:13:46.947Z,80.90
2022-10-22T02:17:50.620Z,80.87
2022-10-22T02:21:53.838Z,80.95
2022-10-22T02:26:06.063Z,80.37
2022-10-22T02:30:07.834Z,80.76
2022-10-22T02:34:14.621Z,81.18
2022-10-22T02:38:17.011Z,81.99
2022-10-22T02:42:18.728Z,82.14
2022-10-22T02:46:20.953Z,82.06
2022-10-22T02:50:22.868Z,81.95
2022-10-22T02:54:24.489Z,82.08
2022-10-22T02:58:26.051Z,82.19
2022-10-22T03:02:27.497Z,81.81
2022-10-22T03:06:29.093Z,81.91
2022-10-22T03:10:30.749Z,81.75
2022-10-22T03:14:32.249Z,81.63
2022-10-22T03:18:33.829Z,81.73
2022-10-22T03:22:38.052Z,81.65
2022-10-22T03:26:42.032Z,81.30
2022-10-22T03:30:43.572Z,81.36
2022-10-22T03:34:45.362Z,81.24
2022-10-22T03:38:47.300Z,81.46
2022-10-22T03:42:48.913Z,81.88
2022-10-22T03:46:50.716Z,81.57
2022-10-22T03:50:52.323Z,81.61
2022-10-22T03:54:53.968Z,81.62
2022-10-22T03:58:57.734Z,82.30
2022-10-22T04:02:59.209Z,81.55
2022-10-22T04:07:00.982Z,81.89
2022-10-22T04:11:02.677Z,82.31
2022-10-22T04:15:05.048Z,82.25
2022-10-22T04:19:07.052Z,82.60
2022-10-22T04:23:08.626Z,82.33
2022-10-22T04:27:10.142Z,82.72
2022-10-22T04:31:14.174Z,81.94
2022-10-22T04:35:15.769Z,81.64
2022-10-22T04:39:17.433Z,81.77
2022-10-22T04:43:19.062Z,81.73
2022-10-22T04:47:20.764Z,81.79
2022-10-22T04:51:24.484Z,81.91
2022-10-22T04:55:26.247Z,81.55
2022-10-22T04:59:27.820Z,81.67
2022-10-22T05:03:29.321Z,82.44
2022-10-22T05:07:30.767Z,82.35
2022-10-22T05:11:35.416Z,81.87
2022-10-22T05:15:36.900Z,81.37
2022-10-22T05:19:38.385Z,81.39
2022-10-22T05:23:40.133Z,81.68
2022-10-22T05:27:42.044Z,81.24
2022-10-22T05:31:43.731Z,81.14
2022-10-22T05:35:46.789Z,80.72
2022-10-22T05:39:51.748Z,80.46
2022-10-22T05:43:59.670Z,80.71
2022-10-22T05:48:01.177Z,80.75
2022-10-22T05:52:02.838Z,81.10
2022-10-22T05:56:08.041Z,81.04
2022-10-22T06:00:12.837Z,80.47
2022-10-22T06:04:17.905Z,81.02
2022-10-22T06:08:22.059Z,80.29
2022-10-22T06:12:23.982Z,80.05
2022-10-22T06:16:28.315Z,79.80
2022-10-22T06:20:29.899Z,79.90
2022-10-22T06:24:31.631Z,80.25
2022-10-22T06:28:34.417Z,79.93
2022-10-22T06:32:39.246Z,79.83
2022-10-22T06:36:42.723Z,80.02
2022-10-22T06:40:45.210Z,79.70
2022-10-22T06:44:46.942Z,79.84
2022-10-22T06:48:50.901Z,79.96
2022-10-22T06:52:52.380Z,79.10
2022-10-22T06:56:54.220Z,79.42
2022-10-22T07:01:04.735Z,79.61
2022-10-22T07:05:07.201Z,79.66
2022-10-22T07:09:08.927Z,79.22
2022-10-22T07:13:10.659Z,79.66
2022-10-22T07:17:12.174Z,79.53
2022-10-22T07:21:16.454Z,79.34
2022-10-22T07:25:17.971Z,78.90
2022-10-22T07:29:19.495Z,78.74
2022-10-22T07:33:21.228Z,81.74
2022-10-22T07:37:22.879Z,83.45
2022-10-22T07:41:26.418Z,83.48
2022-10-22T07:45:28.338Z,83.16
2022-10-22T07:49:29.926Z,83.10
2022-10-22T07:53:31.772Z,85.18
2022-10-22T07:57:33.277Z,88.49
2022-10-22T08:01:35.022Z,89.65
2022-10-22T08:05:36.615Z,90.60
2022-10-22T08:09:38.135Z,91.13
2022-10-22T08:13:44.830Z,90.87
2022-10-22T08:17:47.173Z,92.39
2022-10-22T08:21:48.680Z,91.97
2022-10-22T08:25:50.612Z,92.36
2022-10-22T08:29:52.320Z,92.83
2022-10-22T08:33:53.932Z,93.21
2022-10-22T08:37:55.605Z,92.63
2022-10-22T08:42:26.085Z,92.76
2022-10-22T08:46:32.997Z,92.83
2022-10-22T08:51:00.864Z,93.06
2022-10-22T08:55:04.166Z,92.88
2022-10-22T08:59:21.369Z,92.84
2022-10-22T09:03:27.655Z,92.49
2022-10-22T09:07:29.338Z,92.40
2022-10-22T09:11:37.607Z,91.71
2022-10-22T09:15:40.818Z,91.63
2022-10-22T09:20:09.192Z,91.80
2022-10-22T09:24:32.871Z,90.82
2022-10-22T09:28:34.936Z,90.48
2022-10-22T09:32:36.501Z,88.66
2022-10-22T09:36:38.037Z,87.53
2022-10-22T09:40:50.530Z,87.34
2022-10-22T09:44:55.004Z,84.77
2022-10-22T09:49:03.402Z,82.54
2022-10-22T09:53:14.051Z,81.23
2022-10-22T09:57:22.016Z,74.88
2022-10-22T10:01:33.758Z,71.66
2022-10-22T10:05:37.534Z,69.77
2022-10-22T10:09:39.545Z,65.11
2022-10-22T10:13:46.285Z,65.31
2022-10-22T10:18:00.041Z,60.54
2022-10-22T10:22:18.016Z,47.80
2022-10-22T10:26:31.541Z,47.29
2022-10-22T10:30:38.676Z,45.58
2022-10-22T10:35:02.851Z,45.05
2022-10-22T10:39:23.989Z,39.75
2022-10-22T10:43:30.427Z,33.08
2022-10-22T10:48:09.919Z,31.51
2022-10-22T10:53:04.412Z,35.39
2022-10-22T10:57:22.031Z,37.44
2022-10-22T11:01:36.085Z,30.90
2022-10-22T11:05:50.171Z,28.20
2022-10-22T11:10:02.207Z,25.38
2022-10-22T11:14:13.932Z,30.31
2022-10-22T11:18:28.362Z,36.16
2022-10-22T11:23:06.592Z,40.68
2022-10-22T11:27:19.693Z,46.06
2022-10-22T11:31:24.779Z,51.29
2022-10-22T11:35:31.450Z,55.83
2022-10-22T11:39:42.116Z,60.51
2022-10-22T11:44:03.033Z,62.48
2022-10-22T11:48:10.390Z,63.11
2022-10-22T11:52:45.621Z,62.39
2022-10-22T11:56:47.204Z,63.07
2022-10-22T12:00:49.466Z,62.38
2022-10-22T12:04:51.107Z,63.52
2022-10-22T12:08:52.877Z,65.01
2022-10-22T12:13:10.991Z,65.92
2022-10-22T12:17:16.171Z,63.12
2022-10-22T12:21:17.729Z,57.19
2022-10-22T12:25:23.681Z,53.78
2022-10-22T12:29:26.560Z,52.20
2022-10-22T12:33:32.617Z,48.69
2022-10-22T12:37:38.008Z,44.10
2022-10-22T12:41:40.478Z,34.10
2022-10-22T12:45:44.890Z,26.57
2022-10-22T12:49:49.183Z,22.58
2022-10-22T12:53:53.161Z,21.46
2022-10-22T12:57:54.814Z,20.02
2022-10-22T13:01:56.935Z,19.36
2022-10-22T13:06:23.937Z,19.55
2022-10-22T13:10:32.220Z,18.41
2022-10-22T13:14:38.060Z,18.43
2022-10-22T13:18:40.889Z,17.57
2022-10-22T13:23:04.999Z,18.55
2022-10-22T13:27:09.425Z,19.21
2022-10-22T13:31:20.266Z,18.14
2022-10-22T13:35:26.327Z,17.31
2022-10-22T13:39:27.839Z,16.40
2022-10-22T13:43:29.359Z,16.27
2022-10-22T13:47:31.084Z,22.91
2022-10-22T13:51:35.322Z,22.43
2022-10-22T13:55:36.838Z,24.80
2022-10-22T13:59:38.321Z,23.63
2022-10-22T14:03:40.498Z,22.69
2022-10-22T14:07:42.226Z,20.61
2022-10-22T14:11:44.043Z,28.28
2022-10-22T14:15:48.162Z,27.20
2022-10-22T14:19:49.865Z,29.99
2022-10-22T14:23:52.780Z,26.57
2022-10-22T14:27:54.710Z,30.85
2022-10-22T14:31:56.445Z,29.82
2022-10-22T14:35:59.690Z,24.42
2022-10-22T14:40:02.506Z,27.06
2022-10-22T14:44:04.461Z,35.00
2022-10-22T14:48:06.477Z,39.32
2022-10-22T14:52:10.580Z,43.98
2022-10-22T14:56:16.717Z,46.37
2022-10-22T15:00:18.628Z,48.54
2022-10-22T15:04:20.167Z,50.05
2022-10-22T15:08:21.768Z,50.02
2022-10-22T15:12:23.336Z,52.01
2022-10-22T15:16:25.678Z,52.59
2022-10-22T15:20:27.339Z,52.24
2022-10-22T15:24:28.900Z,53.72
2022-10-22T15:28:30.381Z,54.40
2022-10-22T15:32:33.595Z,56.08
2022-10-22T15:36:35.180Z,58.12
2022-10-22T15:40:36.844Z,58.84
2022-10-22T15:44:39.826Z,60.91
2022-10-22T15:48:41.919Z,65.29
2022-10-22T15:52:43.388Z,66.40
2022-10-22T15:56:45.860Z,67.79
2022-10-22T16:00:47.451Z,69.12
2022-10-22T16:04:49.035Z,70.30
2022-10-22T16:08:50.517Z,71.96
2022-10-22T16:12:54.411Z,72.93
2022-10-22T16:16:56.705Z,73.78
2022-10-22T16:20:58.797Z,74.62
2022-10-22T16:25:00.311Z,75.54
2022-10-22T16:29:02.744Z,75.85
2022-10-22T16:33:06.304Z,76.12
2022-10-22T16:37:10.239Z,76.80
2022-10-22T16:41:20.716Z,77.14
2022-10-22T16:45:22.540Z,77.34
2022-10-22T16:49:24.270Z,77.66
2022-10-22T16:53:31.301Z,78.09
2022-10-22T16:57:34.069Z,78.74
2022-10-22T17:01:40.598Z,79.06
2022-10-22T17:05:43.003Z,79.16
2022-10-22T17:09:44.627Z,79.09
2022-10-22T17:13:48.939Z,79.45
2022-10-22T17:17:53.582Z,79.25
2022-10-22T17:21:58.362Z,78.98
2022-10-22T17:26:08.187Z,79.07
2022-10-22T17:30:17.270Z,79.61
2022-10-22T17:34:18.857Z,80.22
2022-10-22T17:38:20.489Z,80.12
2022-10-22T17:42:22.086Z,80.56
2022-10-22T17:46:26.090Z,81.74
2022-10-22T17:50:30.484Z,81.88
2022-10-22T17:54:33.341Z,81.79
2022-10-22T17:58:34.903Z,82.50
2022-10-22T18:02:36.561Z,82.90
2022-10-22T18:06:38.195Z,83.04
2022-10-22T18:10:41.265Z,83.45
2022-10-22T18:14:47.079Z,83.96
2022-10-22T18:19:02.645Z,83.84
2022-10-22T18:23:05.439Z,83.70
2022-10-22T18:27:07.651Z,83.92
2022-10-22T18:31:12.656Z,83.62
2022-10-22T18:35:14.230Z,83.96
2022-10-22T18:39:16.098Z,84.31
2022-10-22T18:43:18.564Z,84.29
2022-10-22T18:47:20.099Z,84.19
2022-10-22T18:51:22.791Z,84.30
2022-10-22T18:55:28.264Z,84.79
2022-10-22T18:59:30.617Z,84.89
2022-10-22T19:03:32.135Z,85.07
2022-10-22T19:07:36.643Z,85.11
2022-10-22T19:11:38.446Z,85.26
2022-10-22T19:15:40.210Z,85.25
2022-10-22T19:19:44.515Z,85.05
2022-10-22T19:23:46.385Z,85.62
2022-10-22T19:27:51.670Z,85.38
2022-10-22T19:31:53.803Z,84.88
2022-10-22T19:35:55.662Z,85.36
2022-10-22T19:39:57.175Z,84.81
2022-10-22T19:44:00.496Z,84.33
2022-10-22T19:48:02.104Z,84.39
2022-10-22T19:52:03.970Z,83.51
2022-10-22T19:56:08.576Z,82.55
2022-10-22T20:00:10.863Z,82.84
2022-10-22T20:04:17.796Z,81.90
2022-10-22T20:08:19.589Z,82.53
2022-10-22T20:12:21.052Z,82.25
2022-10-22T20:16:24.849Z,81.65
2022-10-22T20:20:26.690Z,81.50
2022-10-22T20:24:52.448Z,81.53
2022-10-22T20:28:55.892Z,80.58
2022-10-22T20:32:57.542Z,80.62
2022-10-22T20:36:59.036Z,81.09
2022-10-22T20:41:21.010Z,80.88
2022-10-22T20:45:22.521Z,81.01
2022-10-22T20:49:24.305Z,81.55
2022-10-22T20:53:27.522Z,82.27
2022-10-22T20:57:29.406Z,82.08
2022-10-22T21:01:42.775Z,82.33
2022-10-22T21:05:44.475Z,82.82
2022-10-22T21:09:46.048Z,83.01
2022-10-22T21:13:47.642Z,83.22
2022-10-22T21:17:49.190Z,83.29
2022-10-22T21:21:50.955Z,83.73
2022-10-22T21:25:57.402Z,83.87
2022-10-22T21:29:59.027Z,84.22
2022-10-22T21:34:00.836Z,84.72
2022-10-22T21:38:02.378Z,84.35
2022-10-22T21:42:03.997Z,84.65
2022-10-22T21:46:08.482Z,84.48
2022-10-22T21:50:10.348Z,84.54
2022-10-22T21:54:12.626Z,84.68
2022-10-22T21:58:14.305Z,85.16
2022-10-22T22:02:15.875Z,85.21
2022-10-22T22:06:21.726Z,84.94
2022-10-22T22:10:26.458Z,84.96
2022-10-22T22:14:28.147Z,85.23
2022-10-22T22:18:31.075Z,85.55
2022-10-22T22:22:33.365Z,85.55
2022-10-22T22:26:36.150Z,85.96
2022-10-22T22:30:37.754Z,85.89
2022-10-22T22:34:39.961Z,85.91
2022-10-22T22:38:41.986Z,85.97
2022-10-22T22:42:43.481Z,86.20
2022-10-22T22:46:45.240Z,86.14
2022-10-22T22:50:48.166Z,86.03
2022-10-22T22:54:49.694Z,85.80
2022-10-22T22:58:51.487Z,85.59
2022-10-22T23:02:56.007Z,85.58
2022-10-22T23:06:57.645Z,85.81
2022-10-22T23:11:08.469Z,86.00
2022-10-22T23:15:10.702Z,87.15
2022-10-22T23:19:15.124Z,87.50
2022-10-22T23:23:16.893Z,87.45
2022-10-22T23:27:18.462Z,87.33
2022-10-22T23:31:21.734Z,87.49
2022-10-22T23:35:23.369Z,87.37
2022-10-22T23:39:27.174Z,87.24
2022-10-22T23:43:29.593Z,86.97
2022-10-22T23:47:31.179Z,87.21
2022-10-22T23:51:32.740Z,87.64
2022-10-22T23:55:37.279Z,87.34
2022-10-22T23:59:38.824Z,87.37
